sensor_id;sensor_type;location;lat;lon;timestamp;temperature;humidity
1063;DHT22;520;50.932;6.962;2022-09-12T00:02:05;17.90;99.90
1063;DHT22;520;50.932;6.962;2022-09-12T00:05:04;17.80;99.90
1063;DHT22;520;50.932;6.962;2022-09-12T00:08:00;17.80;99.90
1063;DHT22;520;50.932;6.962;2022-09-12T00:10:49;17.80;99.90
1063;DHT22;520;50.932;6.962;2022-09-12T00:13:28;18.00;99.90
1063;DHT22;520;50.932;6.962;2022-09-12T00:16:01;18.20;99.90
1063;DHT22;520;50.932;6.962;2022-09-12T00:18:39;18.00;99.90
1063;DHT22;520;50.932;6.962;2022-09-12T00:21:15;17.90;99.90
1063;DHT22;520;50.932;6.962;2022-09-12T00:23:49;17.80;99.90
1063;DHT22;520;50.932;6.962;2022-09-12T00:26:34;17.90;99.90
1063;DHT22;520;50.932;6.962;2022-09-12T00:29:04;17.90;99.90
1063;DHT22;520;50.932;6.962;2022-09-12T00:31:34;18.10;99.90
1063;DHT22;520;50.932;6.962;2022-09-12T00:34:15;17.90;99.90
1063;DHT22;520;50.932;6.962;2022-09-12T00:36:57;17.80;99.90
1063;DHT22;520;50.932;6.962;2022-09-12T00:39:42;17.90;99.90
1063;DHT22;520;50.932;6.962;2022-09-12T00:42:27;18.20;99.90
1063;DHT22;520;50.932;6.962;2022-09-12T00:45:11;18.10;99.90
1063;DHT22;520;50.932;6.962;2022-09-12T00:48:01;17.90;99.90
1063;DHT22;520;50.932;6.962;2022-09-12T00:50:45;17.70;99.90
1063;DHT22;520;50.932;6.962;2022-09-12T00:53:48;17.90;99.90
1063;DHT22;520;50.932;6.962;2022-09-12T00:57:06;17.80;99.90
1063;DHT22;520;50.932;6.962;2022-09-12T00:59:58;17.70;99.90
1063;DHT22;520;50.932;6.962;2022-09-12T01:02:39;17.60;99.90
1063;DHT22;520;50.932;6.962;2022-09-12T01:05:30;17.60;99.90
1063;DHT22;520;50.932;6.962;2022-09-12T01:08:33;17.40;99.90
1063;DHT22;520;50.932;6.962;2022-09-12T01:11:10;17.40;99.90
1063;DHT22;520;50.932;6.962;2022-09-12T01:13:57;17.40;99.90
1063;DHT22;520;50.932;6.962;2022-09-12T01:30:38;17.20;99.90
1063;DHT22;520;50.932;6.962;2022-09-12T01:49:47;17.00;99.90
1063;DHT22;520;50.932;6.962;2022-09-12T01:55:30;17.00;99.90
1063;DHT22;520;50.932;6.962;2022-09-12T02:01:08;17.10;99.90
1063;DHT22;520;50.932;6.962;2022-09-12T02:07:16;17.10;99.90
1063;DHT22;520;50.932;6.962;2022-09-12T02:10:19;17.00;99.90
1063;DHT22;520;50.932;6.962;2022-09-12T02:16:31;16.90;99.90
1063;DHT22;520;50.932;6.962;2022-09-12T02:19:19;17.00;99.90
1063;DHT22;520;50.932;6.962;2022-09-12T02:22:11;17.10;99.90
1063;DHT22;520;50.932;6.962;2022-09-12T02:24:53;17.10;99.90
1063;DHT22;520;50.932;6.962;2022-09-12T02:34:41;17.00;99.90
1063;DHT22;520;50.932;6.962;2022-09-12T02:44:29;17.00;99.90
1063;DHT22;520;50.932;6.962;2022-09-12T02:50:59;16.70;99.90
1063;DHT22;520;50.932;6.962;2022-09-12T02:53:52;16.60;99.90
1063;DHT22;520;50.932;6.962;2022-09-12T02:57:17;16.80;99.90
1063;DHT22;520;50.932;6.962;2022-09-12T03:00:13;16.60;99.90
1063;DHT22;520;50.932;6.962;2022-09-12T03:22:04;16.70;99.90
1063;DHT22;520;50.932;6.962;2022-09-12T03:25:48;16.60;99.90
1063;DHT22;520;50.932;6.962;2022-09-12T03:29:02;16.40;99.90
1063;DHT22;520;50.932;6.962;2022-09-12T03:32:00;16.50;99.90
1063;DHT22;520;50.932;6.962;2022-09-12T03:34:27;16.30;99.90
1063;DHT22;520;50.932;6.962;2022-09-12T03:37:17;16.20;99.90
1063;DHT22;520;50.932;6.962;2022-09-12T03:39:49;16.10;99.90
1063;DHT22;520;50.932;6.962;2022-09-12T03:45:57;16.10;99.90
1063;DHT22;520;50.932;6.962;2022-09-12T03:48:35;16.10;99.90
1063;DHT22;520;50.932;6.962;2022-09-12T03:51:19;16.10;99.90
1063;DHT22;520;50.932;6.962;2022-09-12T03:54:05;16.30;99.90
1063;DHT22;520;50.932;6.962;2022-09-12T03:56:35;16.30;99.90
1063;DHT22;520;50.932;6.962;2022-09-12T03:59:33;16.10;99.90
1063;DHT22;520;50.932;6.962;2022-09-12T04:02:09;16.40;99.90
1063;DHT22;520;50.932;6.962;2022-09-12T04:04:44;16.50;99.90
1063;DHT22;520;50.932;6.962;2022-09-12T04:07:30;16.20;99.90
1063;DHT22;520;50.932;6.962;2022-09-12T04:10:00;16.20;99.90
1063;DHT22;520;50.932;6.962;2022-09-12T04:12:38;16.30;99.90
1063;DHT22;520;50.932;6.962;2022-09-12T04:15:20;16.30;99.90
1063;DHT22;520;50.932;6.962;2022-09-12T04:20:51;16.00;99.90
1063;DHT22;520;50.932;6.962;2022-09-12T04:23:33;16.10;99.90
1063;DHT22;520;50.932;6.962;2022-09-12T04:29:41;16.10;99.90
1063;DHT22;520;50.932;6.962;2022-09-12T04:32:38;15.90;99.90
1063;DHT22;520;50.932;6.962;2022-09-12T04:35:14;15.90;99.90
1063;DHT22;520;50.932;6.962;2022-09-12T04:38:08;15.90;99.90
1063;DHT22;520;50.932;6.962;2022-09-12T04:41:24;15.80;99.90
1063;DHT22;520;50.932;6.962;2022-09-12T04:44:36;15.90;99.90
1063;DHT22;520;50.932;6.962;2022-09-12T04:47:21;16.00;99.90
1063;DHT22;520;50.932;6.962;2022-09-12T04:50:17;15.90;99.90
1063;DHT22;520;50.932;6.962;2022-09-12T04:53:24;15.70;99.90
1063;DHT22;520;50.932;6.962;2022-09-12T04:56:16;15.70;99.90
1063;DHT22;520;50.932;6.962;2022-09-12T04:59:18;15.70;99.90
1063;DHT22;520;50.932;6.962;2022-09-12T05:02:22;15.80;99.90
1063;DHT22;520;50.932;6.962;2022-09-12T05:05:41;15.90;99.90
1063;DHT22;520;50.932;6.962;2022-09-12T05:09:26;15.80;99.90
1063;DHT22;520;50.932;6.962;2022-09-12T05:11:56;16.00;99.90
1063;DHT22;520;50.932;6.962;2022-09-12T05:14:39;16.00;99.90
1063;DHT22;520;50.932;6.962;2022-09-12T05:18:11;15.90;99.90
1063;DHT22;520;50.932;6.962;2022-09-12T05:21:14;15.70;99.90
1063;DHT22;520;50.932;6.962;2022-09-12T05:28:06;15.70;99.90
1063;DHT22;520;50.932;6.962;2022-09-12T05:31:24;15.80;99.90
1063;DHT22;520;50.932;6.962;2022-09-12T05:34:40;15.80;99.90
1063;DHT22;520;50.932;6.962;2022-09-12T05:37:24;15.90;99.90
1063;DHT22;520;50.932;6.962;2022-09-12T05:40:23;15.90;99.90
1063;DHT22;520;50.932;6.962;2022-09-12T05:43:18;15.90;99.90
1063;DHT22;520;50.932;6.962;2022-09-12T05:46:10;16.00;99.90
1063;DHT22;520;50.932;6.962;2022-09-12T05:51:58;16.00;99.90
1063;DHT22;520;50.932;6.962;2022-09-12T05:54:51;16.00;99.90
1063;DHT22;520;50.932;6.962;2022-09-12T05:57:30;16.20;99.90
1063;DHT22;520;50.932;6.962;2022-09-12T05:59:59;16.30;99.90
1063;DHT22;520;50.932;6.962;2022-09-12T06:02:56;16.30;99.90
1063;DHT22;520;50.932;6.962;2022-09-12T06:05:42;16.40;99.90
1063;DHT22;520;50.932;6.962;2022-09-12T06:08:19;16.30;99.90
1063;DHT22;520;50.932;6.962;2022-09-12T06:10:50;16.40;99.90
1063;DHT22;520;50.932;6.962;2022-09-12T06:13:30;17.40;99.90
1063;DHT22;520;50.932;6.962;2022-09-12T06:16:58;18.80;99.90
1063;DHT22;520;50.932;6.962;2022-09-12T06:19:57;19.60;98.30
1063;DHT22;520;50.932;6.962;2022-09-12T06:22:58;19.40;97.30
1063;DHT22;520;50.932;6.962;2022-09-12T06:25:50;18.90;98.60
1063;DHT22;520;50.932;6.962;2022-09-12T06:31:31;21.10;96.10
1063;DHT22;520;50.932;6.962;2022-09-12T06:34:24;21.30;94.40
1063;DHT22;520;50.932;6.962;2022-09-12T06:37:01;21.40;94.00
1063;DHT22;520;50.932;6.962;2022-09-12T06:42:43;21.50;93.80
1063;DHT22;520;50.932;6.962;2022-09-12T06:45:33;22.00;93.00
1063;DHT22;520;50.932;6.962;2022-09-12T06:48:17;22.80;91.60
1063;DHT22;520;50.932;6.962;2022-09-12T06:51:14;22.80;90.60
1063;DHT22;520;50.932;6.962;2022-09-12T06:54:11;21.60;91.60
1063;DHT22;520;50.932;6.962;2022-09-12T06:56:53;21.10;93.60
1063;DHT22;520;50.932;6.962;2022-09-12T07:00:03;21.00;93.90
1063;DHT22;520;50.932;6.962;2022-09-12T07:03:03;20.90;94.10
1063;DHT22;520;50.932;6.962;2022-09-12T07:06:14;20.30;94.60
1063;DHT22;520;50.932;6.962;2022-09-12T07:08:51;19.90;96.10
1063;DHT22;520;50.932;6.962;2022-09-12T07:11:29;19.80;96.70
1063;DHT22;520;50.932;6.962;2022-09-12T07:14:13;20.30;96.70
1063;DHT22;520;50.932;6.962;2022-09-12T07:17:00;21.30;94.80
1063;DHT22;520;50.932;6.962;2022-09-12T07:19:38;22.00;93.20
1063;DHT22;520;50.932;6.962;2022-09-12T07:22:25;21.80;92.50
1063;DHT22;520;50.932;6.962;2022-09-12T07:28:37;20.80;93.70
1063;DHT22;520;50.932;6.962;2022-09-12T07:31:22;20.40;95.10
1063;DHT22;520;50.932;6.962;2022-09-12T07:34:32;20.50;95.80
1063;DHT22;520;50.932;6.962;2022-09-12T07:37:19;20.40;95.60
1063;DHT22;520;50.932;6.962;2022-09-12T07:39:50;21.00;94.70
1063;DHT22;520;50.932;6.962;2022-09-12T07:42:59;21.70;94.10
1063;DHT22;520;50.932;6.962;2022-09-12T07:45:35;22.50;92.40
1063;DHT22;520;50.932;6.962;2022-09-12T07:48:26;22.40;92.10
1063;DHT22;520;50.932;6.962;2022-09-12T07:51:24;22.70;91.40
1063;DHT22;520;50.932;6.962;2022-09-12T07:54:16;22.60;91.20
1063;DHT22;520;50.932;6.962;2022-09-12T07:57:01;22.10;91.90
1063;DHT22;520;50.932;6.962;2022-09-12T08:03:00;21.90;92.80
1063;DHT22;520;50.932;6.962;2022-09-12T08:05:33;22.20;92.00
1063;DHT22;520;50.932;6.962;2022-09-12T08:08:26;22.20;92.30
1063;DHT22;520;50.932;6.962;2022-09-12T08:11:12;22.50;91.50
1063;DHT22;520;50.932;6.962;2022-09-12T08:14:04;23.20;90.80
1063;DHT22;520;50.932;6.962;2022-09-12T08:16:42;22.90;90.40
1063;DHT22;520;50.932;6.962;2022-09-12T08:19:29;22.60;91.20
1063;DHT22;520;50.932;6.962;2022-09-12T08:22:16;22.20;92.30
1063;DHT22;520;50.932;6.962;2022-09-12T08:25:01;21.90;92.60
1063;DHT22;520;50.932;6.962;2022-09-12T08:27:43;21.50;92.80
1063;DHT22;520;50.932;6.962;2022-09-12T08:30:33;20.90;93.90
1063;DHT22;520;50.932;6.962;2022-09-12T08:32:59;20.60;95.10
1063;DHT22;520;50.932;6.962;2022-09-12T08:35:29;20.40;95.50
1063;DHT22;520;50.932;6.962;2022-09-12T08:38:05;20.60;95.70
1063;DHT22;520;50.932;6.962;2022-09-12T08:50:25;20.80;95.60
1063;DHT22;520;50.932;6.962;2022-09-12T08:52:59;21.10;95.10
1063;DHT22;520;50.932;6.962;2022-09-12T08:55:36;20.90;95.30
1063;DHT22;520;50.932;6.962;2022-09-12T08:58:21;20.90;95.50
1063;DHT22;520;50.932;6.962;2022-09-12T09:01:27;21.00;95.60
1063;DHT22;520;50.932;6.962;2022-09-12T09:05:04;20.90;95.50
1063;DHT22;520;50.932;6.962;2022-09-12T09:17:44;20.90;96.00
1063;DHT22;520;50.932;6.962;2022-09-12T09:23:48;21.20;95.30
1063;DHT22;520;50.932;6.962;2022-09-12T09:29:40;21.70;95.20
1063;DHT22;520;50.932;6.962;2022-09-12T09:32:51;22.00;93.90
1063;DHT22;520;50.932;6.962;2022-09-12T09:46:27;24.30;91.10
1063;DHT22;520;50.932;6.962;2022-09-12T09:50:01;27.00;79.20
1063;DHT22;520;50.932;6.962;2022-09-12T09:59:46;29.20;63.40
1063;DHT22;520;50.932;6.962;2022-09-12T10:02:26;29.50;61.40
1063;DHT22;520;50.932;6.962;2022-09-12T10:05:35;29.20;61.90
1063;DHT22;520;50.932;6.962;2022-09-12T10:09:03;29.10;61.30
1063;DHT22;520;50.932;6.962;2022-09-12T10:15:54;29.50;61.10
1063;DHT22;520;50.932;6.962;2022-09-12T10:19:05;29.70;59.70
1063;DHT22;520;50.932;6.962;2022-09-12T10:22:50;29.90;58.00
1063;DHT22;520;50.932;6.962;2022-09-12T10:26:00;28.90;59.40
1063;DHT22;520;50.932;6.962;2022-09-12T10:32:44;28.70;59.20
1063;DHT22;520;50.932;6.962;2022-09-12T10:36:16;29.10;59.00
1063;DHT22;520;50.932;6.962;2022-09-12T10:39:33;29.00;57.70
1063;DHT22;520;50.932;6.962;2022-09-12T10:42:50;29.00;57.20
1063;DHT22;520;50.932;6.962;2022-09-12T10:45:40;29.00;57.90
1063;DHT22;520;50.932;6.962;2022-09-12T10:48:30;29.50;56.90
1063;DHT22;520;50.932;6.962;2022-09-12T10:51:29;29.60;55.50
1063;DHT22;520;50.932;6.962;2022-09-12T10:54:36;28.30;57.20
1063;DHT22;520;50.932;6.962;2022-09-12T10:58:11;29.40;54.80
1063;DHT22;520;50.932;6.962;2022-09-12T11:11:16;29.20;53.30
1063;DHT22;520;50.932;6.962;2022-09-12T11:17:48;28.80;53.30
1063;DHT22;520;50.932;6.962;2022-09-12T11:30:45;28.90;51.80
1063;DHT22;520;50.932;6.962;2022-09-12T11:34:15;29.80;49.80
1063;DHT22;520;50.932;6.962;2022-09-12T11:44:25;29.80;48.30
1063;DHT22;520;50.932;6.962;2022-09-12T11:47:10;28.90;49.40
1063;DHT22;520;50.932;6.962;2022-09-12T11:50:28;29.70;49.40
1063;DHT22;520;50.932;6.962;2022-09-12T11:53:27;29.80;47.50
1063;DHT22;520;50.932;6.962;2022-09-12T11:56:18;29.90;47.60
1063;DHT22;520;50.932;6.962;2022-09-12T11:59:16;29.70;47.50
1063;DHT22;520;50.932;6.962;2022-09-12T12:07:59;29.90;47.00
1063;DHT22;520;50.932;6.962;2022-09-12T12:10:53;29.20;47.10
1063;DHT22;520;50.932;6.962;2022-09-12T12:14:22;28.80;48.20
1063;DHT22;520;50.932;6.962;2022-09-12T12:17:01;29.50;47.80
1063;DHT22;520;50.932;6.962;2022-09-12T12:20:00;29.00;48.60
1063;DHT22;520;50.932;6.962;2022-09-12T12:23:02;29.30;47.80
1063;DHT22;520;50.932;6.962;2022-09-12T12:31:22;29.20;47.00
1063;DHT22;520;50.932;6.962;2022-09-12T12:34:27;29.30;48.00
1063;DHT22;520;50.932;6.962;2022-09-12T12:40:44;29.00;47.90
1063;DHT22;520;50.932;6.962;2022-09-12T12:43:35;29.80;47.30
1063;DHT22;520;50.932;6.962;2022-09-12T12:50:22;30.00;46.80
1063;DHT22;520;50.932;6.962;2022-09-12T12:53:06;29.90;47.00
1063;DHT22;520;50.932;6.962;2022-09-12T13:01:54;29.80;46.00
1063;DHT22;520;50.932;6.962;2022-09-12T13:04:43;29.90;46.20
1063;DHT22;520;50.932;6.962;2022-09-12T13:07:34;30.20;46.40
1063;DHT22;520;50.932;6.962;2022-09-12T13:10:30;29.90;46.70
1063;DHT22;520;50.932;6.962;2022-09-12T13:13:23;29.60;47.50
1063;DHT22;520;50.932;6.962;2022-09-12T13:15:57;29.80;47.20
1063;DHT22;520;50.932;6.962;2022-09-12T13:18:43;30.10;46.70
1063;DHT22;520;50.932;6.962;2022-09-12T13:21:16;30.20;47.00
1063;DHT22;520;50.932;6.962;2022-09-12T13:24:01;30.00;46.70
1063;DHT22;520;50.932;6.962;2022-09-12T13:26:39;30.00;47.00
1063;DHT22;520;50.932;6.962;2022-09-12T13:32:31;29.80;47.10
1063;DHT22;520;50.932;6.962;2022-09-12T13:47:52;30.10;46.80
1063;DHT22;520;50.932;6.962;2022-09-12T13:53:58;29.70;47.70
1063;DHT22;520;50.932;6.962;2022-09-12T14:00:06;29.50;48.10
1063;DHT22;520;50.932;6.962;2022-09-12T14:02:49;29.80;47.50
1063;DHT22;520;50.932;6.962;2022-09-12T14:05:59;29.80;47.50
1063;DHT22;520;50.932;6.962;2022-09-12T14:08:41;29.70;47.80
1063;DHT22;520;50.932;6.962;2022-09-12T14:11:26;29.60;47.70
1063;DHT22;520;50.932;6.962;2022-09-12T14:14:04;29.40;48.10
1063;DHT22;520;50.932;6.962;2022-09-12T14:16:39;29.00;49.00
1063;DHT22;520;50.932;6.962;2022-09-12T14:19:19;29.20;48.70
1063;DHT22;520;50.932;6.962;2022-09-12T14:22:11;29.10;49.00
1063;DHT22;520;50.932;6.962;2022-09-12T14:24:52;29.30;48.90
1063;DHT22;520;50.932;6.962;2022-09-12T14:27:41;29.40;48.80
1063;DHT22;520;50.932;6.962;2022-09-12T14:30:40;29.10;48.70
1063;DHT22;520;50.932;6.962;2022-09-12T14:33:19;28.80;49.50
1063;DHT22;520;50.932;6.962;2022-09-12T14:36:26;28.90;49.40
1063;DHT22;520;50.932;6.962;2022-09-12T14:42:00;28.80;49.80
1063;DHT22;520;50.932;6.962;2022-09-12T14:44:42;28.80;49.70
1063;DHT22;520;50.932;6.962;2022-09-12T14:47:26;28.70;50.20
1063;DHT22;520;50.932;6.962;2022-09-12T14:50:21;28.80;50.40
1063;DHT22;520;50.932;6.962;2022-09-12T14:53:24;28.70;50.40
1063;DHT22;520;50.932;6.962;2022-09-12T14:56:11;28.40;50.70
1063;DHT22;520;50.932;6.962;2022-09-12T14:58:49;28.50;50.40
1063;DHT22;520;50.932;6.962;2022-09-12T15:01:26;28.50;51.00
1063;DHT22;520;50.932;6.962;2022-09-12T15:03:59;28.20;51.40
1063;DHT22;520;50.932;6.962;2022-09-12T15:06:33;28.10;51.50
1063;DHT22;520;50.932;6.962;2022-09-12T15:09:19;28.10;51.50
1063;DHT22;520;50.932;6.962;2022-09-12T15:12:09;28.00;51.90
1063;DHT22;520;50.932;6.962;2022-09-12T15:14:56;28.20;52.00
1063;DHT22;520;50.932;6.962;2022-09-12T15:17:32;28.00;51.70
1063;DHT22;520;50.932;6.962;2022-09-12T15:20:17;28.30;51.60
1063;DHT22;520;50.932;6.962;2022-09-12T15:22:55;28.50;50.70
1063;DHT22;520;50.932;6.962;2022-09-12T15:25:48;28.20;50.80
1063;DHT22;520;50.932;6.962;2022-09-12T15:28:23;28.00;51.40
1063;DHT22;520;50.932;6.962;2022-09-12T15:31:21;27.80;51.60
1063;DHT22;520;50.932;6.962;2022-09-12T15:34:03;27.90;51.60
1063;DHT22;520;50.932;6.962;2022-09-12T15:36:32;27.90;51.70
1063;DHT22;520;50.932;6.962;2022-09-12T15:39:08;27.70;51.90
1063;DHT22;520;50.932;6.962;2022-09-12T15:41:41;27.80;51.60
1063;DHT22;520;50.932;6.962;2022-09-12T15:44:11;27.70;52.20
1063;DHT22;520;50.932;6.962;2022-09-12T15:46:50;27.70;52.00
1063;DHT22;520;50.932;6.962;2022-09-12T15:49:28;27.80;51.90
1063;DHT22;520;50.932;6.962;2022-09-12T15:51:57;27.70;52.10
1063;DHT22;520;50.932;6.962;2022-09-12T15:54:39;27.70;51.90
1063;DHT22;520;50.932;6.962;2022-09-12T15:57:19;27.40;52.20
1063;DHT22;520;50.932;6.962;2022-09-12T15:59:48;27.60;52.20
1063;DHT22;520;50.932;6.962;2022-09-12T16:02:36;27.60;52.20
1063;DHT22;520;50.932;6.962;2022-09-12T16:05:24;27.50;52.10
1063;DHT22;520;50.932;6.962;2022-09-12T16:08:28;27.40;52.10
1063;DHT22;520;50.932;6.962;2022-09-12T16:11:16;27.40;52.20
1063;DHT22;520;50.932;6.962;2022-09-12T16:14:03;27.50;52.40
1063;DHT22;520;50.932;6.962;2022-09-12T16:17:00;27.60;52.50
1063;DHT22;520;50.932;6.962;2022-09-12T16:19:38;27.40;52.20
1063;DHT22;520;50.932;6.962;2022-09-12T16:22:11;27.50;51.90
1063;DHT22;520;50.932;6.962;2022-09-12T16:25:01;27.40;52.00
1063;DHT22;520;50.932;6.962;2022-09-12T16:27:47;27.20;52.70
1063;DHT22;520;50.932;6.962;2022-09-12T16:31:26;27.40;52.30
1063;DHT22;520;50.932;6.962;2022-09-12T16:33:48;27.60;52.00
1063;DHT22;520;50.932;6.962;2022-09-12T16:36:25;27.20;52.40
1063;DHT22;520;50.932;6.962;2022-09-12T16:38:57;27.10;52.80
1063;DHT22;520;50.932;6.962;2022-09-12T16:41:29;26.90;52.80
1063;DHT22;520;50.932;6.962;2022-09-12T16:43:57;26.90;52.80
1063;DHT22;520;50.932;6.962;2022-09-12T16:46:31;26.90;53.50
1063;DHT22;520;50.932;6.962;2022-09-12T16:49:21;27.10;53.10
1063;DHT22;520;50.932;6.962;2022-09-12T16:54:59;27.00;53.90
1063;DHT22;520;50.932;6.962;2022-09-12T16:57:57;26.90;54.70
1063;DHT22;520;50.932;6.962;2022-09-12T17:01:19;26.90;54.70
1063;DHT22;520;50.932;6.962;2022-09-12T17:04:40;26.90;55.00
1063;DHT22;520;50.932;6.962;2022-09-12T17:07:25;26.80;55.20
1063;DHT22;520;50.932;6.962;2022-09-12T17:10:05;26.70;55.10
1063;DHT22;520;50.932;6.962;2022-09-12T17:12:52;26.60;55.40
1063;DHT22;520;50.932;6.962;2022-09-12T17:19:42;26.40;56.50
1063;DHT22;520;50.932;6.962;2022-09-12T17:22:52;26.30;56.40
1063;DHT22;520;50.932;6.962;2022-09-12T17:25:22;26.30;57.30
1063;DHT22;520;50.932;6.962;2022-09-12T17:28:41;26.30;56.80
1063;DHT22;520;50.932;6.962;2022-09-12T17:31:28;26.00;57.30
1063;DHT22;520;50.932;6.962;2022-09-12T17:34:02;26.00;57.70
1063;DHT22;520;50.932;6.962;2022-09-12T17:36:50;25.90;57.70
1063;DHT22;520;50.932;6.962;2022-09-12T17:39:40;25.90;58.10
1063;DHT22;520;50.932;6.962;2022-09-12T17:42:20;26.20;57.50
1063;DHT22;520;50.932;6.962;2022-09-12T17:45:13;26.00;57.70
1063;DHT22;520;50.932;6.962;2022-09-12T17:54:18;26.00;58.00
1063;DHT22;520;50.932;6.962;2022-09-12T17:57:45;25.90;58.30
1063;DHT22;520;50.932;6.962;2022-09-12T18:00:29;25.70;58.60
1063;DHT22;520;50.932;6.962;2022-09-12T18:03:45;25.70;58.90
1063;DHT22;520;50.932;6.962;2022-09-12T18:06:36;25.50;58.90
1063;DHT22;520;50.932;6.962;2022-09-12T18:09:52;25.70;59.20
1063;DHT22;520;50.932;6.962;2022-09-12T18:12:22;25.70;59.90
1063;DHT22;520;50.932;6.962;2022-09-12T18:14:49;25.70;59.80
1063;DHT22;520;50.932;6.962;2022-09-12T18:17:56;25.50;59.50
1063;DHT22;520;50.932;6.962;2022-09-12T18:20:33;25.40;60.10
1063;DHT22;520;50.932;6.962;2022-09-12T18:23:15;25.20;60.60
1063;DHT22;520;50.932;6.962;2022-09-12T18:25:42;25.30;60.40
1063;DHT22;520;50.932;6.962;2022-09-12T18:28:16;25.40;60.10
1063;DHT22;520;50.932;6.962;2022-09-12T18:30:57;25.20;60.70
1063;DHT22;520;50.932;6.962;2022-09-12T18:33:29;25.00;61.70
1063;DHT22;520;50.932;6.962;2022-09-12T18:36:09;24.80;62.10
1063;DHT22;520;50.932;6.962;2022-09-12T18:39:00;24.70;62.20
1063;DHT22;520;50.932;6.962;2022-09-12T18:41:59;24.90;62.10
1063;DHT22;520;50.932;6.962;2022-09-12T18:44:48;24.90;61.90
1063;DHT22;520;50.932;6.962;2022-09-12T18:47:29;24.90;61.70
1063;DHT22;520;50.932;6.962;2022-09-12T18:50:04;24.80;61.60
1063;DHT22;520;50.932;6.962;2022-09-12T18:52:41;24.60;62.00
1063;DHT22;520;50.932;6.962;2022-09-12T18:55:12;24.60;62.00
1063;DHT22;520;50.932;6.962;2022-09-12T18:57:39;24.50;61.90
1063;DHT22;520;50.932;6.962;2022-09-12T19:00:16;24.30;62.70
1063;DHT22;520;50.932;6.962;2022-09-12T19:02:47;24.40;63.60
1063;DHT22;520;50.932;6.962;2022-09-12T19:05:22;24.40;63.90
1063;DHT22;520;50.932;6.962;2022-09-12T19:07:49;24.50;64.30
1063;DHT22;520;50.932;6.962;2022-09-12T19:10:17;24.60;62.60
1063;DHT22;520;50.932;6.962;2022-09-12T19:12:48;24.50;62.80
1063;DHT22;520;50.932;6.962;2022-09-12T19:15:22;24.30;63.40
1063;DHT22;520;50.932;6.962;2022-09-12T19:18:27;24.10;64.60
1063;DHT22;520;50.932;6.962;2022-09-12T19:21:32;24.00;66.00
1063;DHT22;520;50.932;6.962;2022-09-12T19:32:04;24.30;66.10
1063;DHT22;520;50.932;6.962;2022-09-12T19:39:02;24.00;65.70
1063;DHT22;520;50.932;6.962;2022-09-12T19:41:52;24.00;66.20
1063;DHT22;520;50.932;6.962;2022-09-12T19:44:21;23.90;65.90
1063;DHT22;520;50.932;6.962;2022-09-12T19:46:58;23.80;66.30
1063;DHT22;520;50.932;6.962;2022-09-12T19:49:40;23.60;66.70
1063;DHT22;520;50.932;6.962;2022-09-12T19:52:17;23.80;66.40
1063;DHT22;520;50.932;6.962;2022-09-12T19:54:55;23.70;67.10
1063;DHT22;520;50.932;6.962;2022-09-12T19:57:29;23.70;68.10
1063;DHT22;520;50.932;6.962;2022-09-12T20:00:03;23.60;67.80
1063;DHT22;520;50.932;6.962;2022-09-12T20:02:40;23.40;68.30
1063;DHT22;520;50.932;6.962;2022-09-12T20:05:30;23.30;68.10
1063;DHT22;520;50.932;6.962;2022-09-12T20:08:08;23.20;69.10
1063;DHT22;520;50.932;6.962;2022-09-12T20:10:45;23.20;70.30
1063;DHT22;520;50.932;6.962;2022-09-12T20:13:36;23.30;70.60
1063;DHT22;520;50.932;6.962;2022-09-12T20:16:51;23.60;71.00
1063;DHT22;520;50.932;6.962;2022-09-12T20:19:30;23.40;71.60
1063;DHT22;520;50.932;6.962;2022-09-12T20:22:20;23.50;71.20
1063;DHT22;520;50.932;6.962;2022-09-12T20:24:48;23.40;70.30
1063;DHT22;520;50.932;6.962;2022-09-12T20:27:25;23.30;70.00
1063;DHT22;520;50.932;6.962;2022-09-12T20:30:06;23.30;70.50
1063;DHT22;520;50.932;6.962;2022-09-12T20:32:41;23.30;70.40
1063;DHT22;520;50.932;6.962;2022-09-12T20:35:21;23.10;70.90
1063;DHT22;520;50.932;6.962;2022-09-12T20:38:25;22.90;71.60
1063;DHT22;520;50.932;6.962;2022-09-12T20:40:59;22.90;72.20
1063;DHT22;520;50.932;6.962;2022-09-12T20:43:41;23.00;72.70
1063;DHT22;520;50.932;6.962;2022-09-12T20:49:39;23.00;72.70
1063;DHT22;520;50.932;6.962;2022-09-12T20:52:13;22.80;73.40
1063;DHT22;520;50.932;6.962;2022-09-12T20:54:51;22.80;74.80
1063;DHT22;520;50.932;6.962;2022-09-12T20:57:38;22.70;74.90
1063;DHT22;520;50.932;6.962;2022-09-12T21:00:22;22.70;75.30
1063;DHT22;520;50.932;6.962;2022-09-12T21:02:52;22.70;74.30
1063;DHT22;520;50.932;6.962;2022-09-12T21:05:19;22.70;75.10
1063;DHT22;520;50.932;6.962;2022-09-12T21:07:48;22.80;76.30
1063;DHT22;520;50.932;6.962;2022-09-12T21:10:15;22.70;75.80
1063;DHT22;520;50.932;6.962;2022-09-12T21:12:44;22.80;75.40
1063;DHT22;520;50.932;6.962;2022-09-12T21:15:11;22.80;75.40
1063;DHT22;520;50.932;6.962;2022-09-12T21:17:38;22.60;75.80
1063;DHT22;520;50.932;6.962;2022-09-12T21:20:05;22.60;76.40
1063;DHT22;520;50.932;6.962;2022-09-12T21:22:36;22.60;76.30
1063;DHT22;520;50.932;6.962;2022-09-12T21:25:04;22.50;77.50
1063;DHT22;520;50.932;6.962;2022-09-12T21:27:31;22.50;77.60
1063;DHT22;520;50.932;6.962;2022-09-12T21:30:03;22.50;77.70
1063;DHT22;520;50.932;6.962;2022-09-12T21:32:34;22.30;79.00
1063;DHT22;520;50.932;6.962;2022-09-12T21:35:02;22.10;80.20
1063;DHT22;520;50.932;6.962;2022-09-12T21:37:30;22.00;81.20
1063;DHT22;520;50.932;6.962;2022-09-12T21:39:57;22.00;81.70
1063;DHT22;520;50.932;6.962;2022-09-12T21:42:25;21.80;82.20
1063;DHT22;520;50.932;6.962;2022-09-12T21:44:53;22.00;82.10
1063;DHT22;520;50.932;6.962;2022-09-12T21:47:21;21.80;82.60
1063;DHT22;520;50.932;6.962;2022-09-12T21:49:49;21.80;83.60
1063;DHT22;520;50.932;6.962;2022-09-12T21:52:16;21.90;83.80
1063;DHT22;520;50.932;6.962;2022-09-12T21:54:43;22.10;83.70
1063;DHT22;520;50.932;6.962;2022-09-12T21:57:13;22.10;83.50
1063;DHT22;520;50.932;6.962;2022-09-12T21:59:40;22.00;83.90
1063;DHT22;520;50.932;6.962;2022-09-12T22:02:07;21.90;84.00
1063;DHT22;520;50.932;6.962;2022-09-12T22:04:34;22.00;84.80
1063;DHT22;520;50.932;6.962;2022-09-12T22:07:00;21.90;85.00
1063;DHT22;520;50.932;6.962;2022-09-12T22:09:27;21.80;85.80
1063;DHT22;520;50.932;6.962;2022-09-12T22:11:54;21.70;86.20
1063;DHT22;520;50.932;6.962;2022-09-12T22:14:21;21.80;86.20
1063;DHT22;520;50.932;6.962;2022-09-12T22:16:47;21.70;86.80
1063;DHT22;520;50.932;6.962;2022-09-12T22:19:14;21.70;86.90
1063;DHT22;520;50.932;6.962;2022-09-12T22:21:42;21.50;87.40
1063;DHT22;520;50.932;6.962;2022-09-12T22:24:29;21.50;88.20
1063;DHT22;520;50.932;6.962;2022-09-12T22:26:57;21.60;88.20
1063;DHT22;520;50.932;6.962;2022-09-12T22:29:24;21.70;88.40
1063;DHT22;520;50.932;6.962;2022-09-12T22:31:52;21.70;88.40
1063;DHT22;520;50.932;6.962;2022-09-12T22:34:19;21.50;89.10
1063;DHT22;520;50.932;6.962;2022-09-12T22:36:47;21.50;89.80
1063;DHT22;520;50.932;6.962;2022-09-12T22:39:14;21.60;89.50
1063;DHT22;520;50.932;6.962;2022-09-12T22:41:41;21.50;89.90
1063;DHT22;520;50.932;6.962;2022-09-12T22:44:09;21.60;89.80
1063;DHT22;520;50.932;6.962;2022-09-12T22:46:36;21.60;90.00
1063;DHT22;520;50.932;6.962;2022-09-12T22:49:05;21.60;90.30
1063;DHT22;520;50.932;6.962;2022-09-12T22:51:35;21.60;90.20
1063;DHT22;520;50.932;6.962;2022-09-12T22:54:03;21.50;90.70